Time;durP1;ratioP1;P1;durP2;ratioP2;P2;SDS_P1;SDS_P2;PMS_P1;PMS_P2;Temp;Humidity;BMP_temperature;BMP_pressure;BME280_temperature;BME280_humidity;BME280_pressure;Samples;Min_cycle;Max_cycle;Signal;HPM_P1;HPM_P2
2023/01/04 00:00:18;;;;;;;;;;;;;;;-145.06;100.00;60892.56;5896579;23;20216;-91
2023/01/04 00:02:57;;;;;;;;;;;;;;;-145.06;100.00;60892.56;5896936;23;19905;-89
2023/01/04 00:05:36;;;;;;;;;;;;;;;-145.06;100.00;60892.56;5896285;23;19909;-89
2023/01/04 00:08:15;;;;;;;;;;;;;;;-145.06;100.00;60892.56;5896457;23;19984;-89
2023/01/04 00:11:01;;;;;;;;;;;;;;;-145.06;100.00;60892.56;5898004;23;20477;-89
2023/01/04 00:13:40;;;;;;;;;;;;;;;-145.06;100.00;60892.56;5898348;23;19905;-89
2023/01/04 00:16:21;;;;;;;;;;;;;;;-145.06;100.00;60892.56;5897892;23;19904;-90
2023/01/04 00:19:00;;;;;;;;;;;;;;;-145.06;100.00;60892.56;5898862;23;19901;-90
2023/01/04 00:21:39;;;;;;;;;;;;;;;-145.06;100.00;60892.56;5898772;23;19905;-89
2023/01/04 00:24:18;;;;;;;;;;;;;;;-145.06;100.00;60892.56;5898646;23;19913;-90
2023/01/04 00:26:57;;;;;;;;;;;;;;;-145.06;100.00;60892.56;5897854;23;20538;-88
2023/01/04 00:29:36;;;;;;;;;;;;;;;-145.06;100.00;60892.56;5898843;23;20324;-90
2023/01/04 00:32:15;;;;;;;;;;;;;;;-145.06;100.00;60892.56;5897604;23;19904;-90
2023/01/04 00:34:54;;;;;;;;;;;;;;;-145.06;100.00;60892.56;5930342;23;19905;-90
2023/01/04 00:37:33;;;;;;;;;;;;;;;-145.06;100.00;60892.56;5898166;23;19905;-90
2023/01/04 00:40:12;;;;;;;;;;;;;;;-145.06;100.00;60892.56;5898187;23;19905;-91
2023/01/04 00:42:51;;;;;;;;;;;;;;;-145.06;100.00;60892.56;5898619;23;19905;-90
2023/01/04 00:45:30;;;;;;;;;;;;;;;-145.06;100.00;60892.56;5896638;23;19909;-90
2023/01/04 00:48:09;;;;;;;;;;;;;;;-145.06;100.00;60892.56;5905348;23;20307;-89
2023/01/04 00:50:48;;;;;;;;;;;;;;;-145.06;100.00;60892.56;5918819;23;19908;-89
2023/01/04 00:53:27;;;;;;;;;;;;;;;-145.06;100.00;60892.56;5920115;23;19904;-90
2023/01/04 00:56:06;;;;;;;;;;;;;;;-145.06;100.00;60892.56;5918705;23;20206;-92
2023/01/04 00:58:45;;;;;;;;;;;;;;;-145.06;100.00;60892.56;5920237;23;20457;-90
2023/01/04 01:01:25;;;;;;;;;;;;;;;-145.06;100.00;60892.56;5920543;23;19904;-90
2023/01/04 01:04:04;;;;;;;;;;;;;;;-145.06;100.00;60892.56;5919337;23;19904;-89
2023/01/04 01:06:43;;;;;;;;;;;;;;;-145.06;100.00;60892.56;5919351;23;19909;-90
2023/01/04 01:09:22;;;;;;;;;;;;;;;-145.06;100.00;60892.56;5920486;23;19909;-89
2023/01/04 01:12:01;;;;;;;;;;;;;;;-145.06;100.00;60892.56;5919276;23;19909;-90
2023/01/04 01:14:40;;;;;;;;;;;;;;;-145.06;100.00;60892.56;5920256;23;19905;-89
2023/01/04 01:17:19;;;;;;;;;;;;;;;-145.06;100.00;60892.56;5919084;23;19905;-89
2023/01/04 01:19:59;;;;;;;;;;;;;;;-145.06;100.00;60892.56;5918363;23;19909;-92
2023/01/04 01:22:38;;;;;;;;;;;;;;;-145.06;100.00;60892.56;5920158;23;19909;-90
2023/01/04 01:25:17;;;;;;;;;;;;;;;-145.06;100.00;60892.56;5918844;23;19909;-88
2023/01/04 01:27:56;;;;;;;;;;;;;;;-145.06;100.00;60892.56;5919645;23;19909;-90
2023/01/04 01:30:38;;;;;;;;;;;;;;;-145.06;100.00;60892.56;5919700;23;20375;-90
2023/01/04 01:33:17;;;;;;;;;;;;;;;-145.06;100.00;60892.56;5919142;23;19929;-88
2023/01/04 01:36:00;;;;;;;;;;;;;;;-145.06;100.00;60892.56;5919406;23;19905;-88
2023/01/04 01:38:40;;;;;;;;;;;;;;;-145.06;100.00;60892.56;5918873;23;19905;-89
2023/01/04 01:41:18;;;;;;;;;;;;;;;-145.06;100.00;60892.56;5920249;23;19928;-90
2023/01/04 01:44:03;;;;;;;;;;;;;;;-145.06;100.00;60892.56;5919626;23;19940;-90
2023/01/04 01:46:43;;;;;;;;;;;;;;;-145.06;100.00;60892.56;5919259;23;19909;-89
2023/01/04 01:49:25;;;;;;;;;;;;;;;-145.06;100.00;60892.56;5918406;23;19913;-89
2023/01/04 01:52:10;;;;;;;;;;;;;;;-145.06;100.00;60892.56;5918906;23;19920;-88
2023/01/04 01:54:55;;;;;;;;;;;;;;;-145.06;100.00;60892.56;5918890;23;19905;-88
2023/01/04 01:57:36;;;;;;;;;;;;;;;-145.06;100.00;60892.56;5918898;23;19905;-90
2023/01/04 02:00:16;;;;;;;;;;;;;;;-145.06;100.00;60892.56;5917932;23;20327;-90
2023/01/04 02:03:08;;;;;;;;;;;;;;;-145.06;100.00;60892.56;5918972;23;19905;-88
2023/01/04 02:05:50;;;;;;;;;;;;;;;-145.06;100.00;60892.56;5932520;23;19925;-88
2023/01/04 02:08:29;;;;;;;;;;;;;;;-145.06;100.00;60892.56;5936496;23;19901;-90
2023/01/04 02:11:08;;;;;;;;;;;;;;;-145.06;100.00;60892.56;5919452;23;19913;-89
2023/01/04 02:16:52;;;;;;;;;;;;;;;-145.06;100.00;60892.56;5927572;23;19904;-89
2023/01/04 02:19:50;;;;;;;;;;;;;;;-145.06;100.00;60892.56;5917818;23;19928;-89
2023/01/04 02:22:29;;;;;;;;;;;;;;;-145.06;100.00;60892.56;5918817;23;19908;-89
2023/01/04 02:25:17;;;;;;;;;;;;;;;-145.06;100.00;60892.56;5917184;23;19909;-89
2023/01/04 02:27:58;;;;;;;;;;;;;;;-145.06;100.00;60892.56;5917681;23;19909;-88
2023/01/04 02:30:37;;;;;;;;;;;;;;;-145.06;100.00;60892.56;5918365;23;19909;-90
2023/01/04 02:33:29;;;;;;;;;;;;;;;-145.06;100.00;60892.56;5917687;23;20007;-89
2023/01/04 02:36:08;;;;;;;;;;;;;;;-145.06;100.00;60892.56;5918402;23;19943;-89
2023/01/04 02:38:57;;;;;;;;;;;;;;;-145.06;100.00;60892.56;5918981;23;19905;-90
2023/01/04 02:41:40;;;;;;;;;;;;;;;-145.06;100.00;60892.56;5918866;23;19905;-89
2023/01/04 02:44:52;;;;;;;;;;;;;;;-145.06;100.00;60892.56;5918737;23;19905;-89
2023/01/04 02:50:49;;;;;;;;;;;;;;;-145.06;100.00;60892.56;5928508;23;19913;-89
2023/01/04 02:53:28;;;;;;;;;;;;;;;-145.06;100.00;60892.56;5918714;23;20265;-90
2023/01/04 02:56:14;;;;;;;;;;;;;;;-145.06;100.00;60892.56;5919735;23;19905;-89
2023/01/04 02:59:02;;;;;;;;;;;;;;;-145.06;100.00;60892.56;5920529;23;19904;-89
2023/01/04 03:08:21;;;;;;;;;;;;;;;-145.06;100.00;60892.56;5929755;23;19909;-90
2023/01/04 03:11:03;;;;;;;;;;;;;;;-145.06;100.00;60892.56;5920481;23;19905;-90
2023/01/04 03:13:44;;;;;;;;;;;;;;;-145.06;100.00;60892.56;5918488;23;19905;-89
2023/01/04 03:16:24;;;;;;;;;;;;;;;-145.06;100.00;60892.56;5917850;23;19945;-90
2023/01/04 03:19:08;;;;;;;;;;;;;;;-145.06;100.00;60892.56;5917817;23;19924;-90
2023/01/04 03:21:47;;;;;;;;;;;;;;;-145.06;100.00;60892.56;5918956;23;20320;-91
2023/01/04 03:36:36;;;;;;;;;;;;;;;-145.06;100.00;60892.56;5928350;23;19909;-90
2023/01/04 03:48:47;;;;;;;;;;;;;;;-145.06;100.00;60892.56;5930791;23;19936;-91
2023/01/04 03:51:33;;;;;;;;;;;;;;;-145.06;100.00;60892.56;5899299;23;19905;-91
2023/01/04 03:54:11;;;;;;;;;;;;;;;-145.06;100.00;60892.56;5900465;23;19905;-91
2023/01/04 03:56:51;;;;;;;;;;;;;;;-145.06;100.00;60892.56;5899322;23;20338;-90
2023/01/04 03:59:31;;;;;;;;;;;;;;;-145.06;100.00;60892.56;5899955;23;19960;-90
2023/01/04 04:02:12;;;;;;;;;;;;;;;-145.06;100.00;60892.56;5900513;23;19905;-90
2023/01/04 04:10:47;;;;;;;;;;;;;;;-145.06;100.00;60892.56;5932476;23;19905;-92
2023/01/04 04:13:26;;;;;;;;;;;;;;;-145.06;100.00;60892.56;5901202;23;19908;-90
2023/01/04 04:16:05;;;;;;;;;;;;;;;-145.06;100.00;60892.56;5900041;23;19913;-91
2023/01/04 04:18:46;;;;;;;;;;;;;;;-145.06;100.00;60892.56;5899941;23;20217;-90
2023/01/04 04:21:26;;;;;;;;;;;;;;;-145.06;100.00;60892.56;5900663;23;19909;-90
2023/01/04 04:24:05;;;;;;;;;;;;;;;-145.06;100.00;60892.56;5900247;23;19987;-89
2023/01/04 04:26:44;;;;;;;;;;;;;;;-145.06;100.00;60892.56;5899464;23;19912;-90
2023/01/04 04:29:23;;;;;;;;;;;;;;;-145.06;100.00;60892.56;5899293;23;20283;-90
2023/01/04 04:32:02;;;;;;;;;;;;;;;-145.06;100.00;60892.56;5898804;23;19904;-90
2023/01/04 04:34:41;;;;;;;;;;;;;;;-145.06;100.00;60892.56;5899017;23;19908;-89
2023/01/04 04:37:20;;;;;;;;;;;;;;;-145.06;100.00;60892.56;5898557;23;20321;-90
2023/01/04 04:40:00;;;;;;;;;;;;;;;-145.06;100.00;60892.56;5898312;23;19904;-90
2023/01/04 04:42:39;;;;;;;;;;;;;;;-145.06;100.00;60892.56;5898124;23;19925;-88
2023/01/04 04:45:18;;;;;;;;;;;;;;;-145.06;100.00;60892.56;5898101;23;20380;-90
2023/01/04 04:47:57;;;;;;;;;;;;;;;-145.06;100.00;60892.56;5903618;23;19913;-90
2023/01/04 04:50:36;;;;;;;;;;;;;;;-145.06;100.00;60892.56;5919848;23;19909;-90
2023/01/04 04:53:15;;;;;;;;;;;;;;;-145.06;100.00;60892.56;5919066;23;20232;-90
2023/01/04 04:55:54;;;;;;;;;;;;;;;-145.06;100.00;60892.56;5918358;23;19905;-90
2023/01/04 04:58:33;;;;;;;;;;;;;;;-145.06;100.00;60892.56;5920533;23;19909;-90
2023/01/04 05:01:13;;;;;;;;;;;;;;;-145.06;100.00;60892.56;5922254;23;20220;-91
2023/01/04 05:03:51;;;;;;;;;;;;;;;-145.06;100.00;60892.56;5939148;23;19945;-92
2023/01/04 05:06:31;;;;;;;;;;;;;;;-145.06;100.00;60892.56;5934927;23;20204;-91
2023/01/04 05:09:10;;;;;;;;;;;;;;;-145.06;100.00;60892.56;5921314;23;19980;-91
2023/01/04 05:14:47;;;;;;;;;;;;;;;-145.06;100.00;60892.56;5932129;23;19949;-91
2023/01/04 05:17:26;;;;;;;;;;;;;;;-145.06;100.00;60892.56;5920884;23;19905;-92
2023/01/04 05:20:05;;;;;;;;;;;;;;;-145.06;100.00;60892.56;5920247;23;19909;-91
2023/01/04 05:22:44;;;;;;;;;;;;;;;-145.06;100.00;60892.56;5921007;23;20316;-91
2023/01/04 05:25:23;;;;;;;;;;;;;;;-145.06;100.00;60892.56;5919597;23;20297;-91
2023/01/04 05:28:02;;;;;;;;;;;;;;;-145.06;100.00;60892.56;5919619;23;19913;-91
2023/01/04 05:30:50;;;;;;;;;;;;;;;-145.06;100.00;60892.56;5919758;23;19909;-91
2023/01/04 05:33:30;;;;;;;;;;;;;;;-145.06;100.00;60892.56;5919131;23;19948;-89
2023/01/04 05:36:09;;;;;;;;;;;;;;;-145.06;100.00;60892.56;5921637;23;19905;-93
2023/01/04 05:38:48;;;;;;;;;;;;;;;-145.06;100.00;60892.56;5921641;23;19952;-90
2023/01/04 05:44:25;;;;;;;;;;;;;;;-145.06;100.00;60892.56;5930490;23;19905;-91
2023/01/04 05:47:04;;;;;;;;;;;;;;;-145.06;100.00;60892.56;5919931;23;19983;-91
2023/01/04 05:49:43;;;;;;;;;;;;;;;-145.06;100.00;60892.56;5899440;23;19908;-91
2023/01/04 05:52:22;;;;;;;;;;;;;;;-145.06;100.00;60892.56;5900908;23;19905;-90
2023/01/04 05:55:01;;;;;;;;;;;;;;;-145.06;100.00;60892.56;5899830;23;19936;-92
2023/01/04 05:57:40;;;;;;;;;;;;;;;-145.06;100.00;60892.56;5901610;23;19905;-91
2023/01/04 06:00:19;;;;;;;;;;;;;;;-145.06;100.00;60892.56;5900806;23;19949;-92
2023/01/04 06:02:58;;;;;;;;;;;;;;;-145.06;100.00;60892.56;5900218;23;19909;-90
2023/01/04 06:05:37;;;;;;;;;;;;;;;-145.06;100.00;60892.56;5901876;23;19909;-91
2023/01/04 06:08:17;;;;;;;;;;;;;;;-145.06;100.00;60892.56;5899394;23;19908;-91
2023/01/04 06:10:56;;;;;;;;;;;;;;;-145.06;100.00;60892.56;5900322;23;19904;-90
2023/01/04 06:13:35;;;;;;;;;;;;;;;-145.06;100.00;60892.56;5900397;23;19920;-90
2023/01/04 06:16:14;;;;;;;;;;;;;;;-145.06;100.00;60892.56;5898491;23;20233;-90
2023/01/04 06:18:53;;;;;;;;;;;;;;;-145.06;100.00;60892.56;5898993;23;19904;-93
2023/01/04 06:21:32;;;;;;;;;;;;;;;-145.06;100.00;60892.56;5898988;23;20268;-91
2023/01/04 06:24:11;;;;;;;;;;;;;;;-145.06;100.00;60892.56;5899472;23;19904;-90
2023/01/04 06:26:50;;;;;;;;;;;;;;;-145.06;100.00;60892.56;5899335;23;19909;-91
2023/01/04 06:29:29;;;;;;;;;;;;;;;-145.06;100.00;60892.56;5898816;23;19979;-91
2023/01/04 06:32:08;;;;;;;;;;;;;;;-145.06;100.00;60892.56;5898869;23;20054;-90
2023/01/04 06:34:47;;;;;;;;;;;;;;;-145.06;100.00;60892.56;5897631;23;19905;-90
2023/01/04 06:37:26;;;;;;;;;;;;;;;-145.06;100.00;60892.56;5900374;23;19905;-90
2023/01/04 06:40:05;;;;;;;;;;;;;;;-145.06;100.00;60892.56;5898968;23;20317;-90
2023/01/04 06:42:44;;;;;;;;;;;;;;;-145.06;100.00;60892.56;5898316;23;19905;-89
2023/01/04 06:45:23;;;;;;;;;;;;;;;-145.06;100.00;60892.56;5900762;23;19905;-89
2023/01/04 06:48:02;;;;;;;;;;;;;;;-145.06;100.00;60892.56;5904535;23;19917;-90
2023/01/04 06:50:41;;;;;;;;;;;;;;;-145.06;100.00;60892.56;5926097;23;19908;-89
2023/01/04 06:53:20;;;;;;;;;;;;;;;-145.06;100.00;60892.56;5922550;23;19905;-89
2023/01/04 06:55:59;;;;;;;;;;;;;;;-145.06;100.00;60892.56;5916629;23;19924;-89
2023/01/04 06:58:38;;;;;;;;;;;;;;;-145.06;100.00;60892.56;5917634;23;19909;-90
2023/01/04 07:01:17;;;;;;;;;;;;;;;-145.06;100.00;60892.56;5917752;23;19909;-90
2023/01/04 07:03:56;;;;;;;;;;;;;;;-145.06;100.00;60892.56;5917366;23;19908;-89
2023/01/04 07:06:35;;;;;;;;;;;;;;;-145.06;100.00;60892.56;5918288;23;19909;-90
2023/01/04 07:09:14;;;;;;;;;;;;;;;-145.06;100.00;60892.56;5918565;23;19905;-89
2023/01/04 07:11:53;;;;;;;;;;;;;;;-145.06;100.00;60892.56;5916183;23;20225;-91
2023/01/04 07:14:32;;;;;;;;;;;;;;;-145.06;100.00;60892.56;5918135;23;19904;-90
2023/01/04 07:17:11;;;;;;;;;;;;;;;-145.06;100.00;60892.56;5916692;23;19912;-90
2023/01/04 07:19:50;;;;;;;;;;;;;;;-145.06;100.00;60892.56;5916234;23;19905;-90
2023/01/04 07:22:29;;;;;;;;;;;;;;;-145.06;100.00;60892.56;5917750;23;19909;-89
2023/01/04 07:25:08;;;;;;;;;;;;;;;-145.06;100.00;60892.56;5917834;23;19975;-88
2023/01/04 07:27:49;;;;;;;;;;;;;;;-145.06;100.00;60892.56;5917085;23;20316;-91
2023/01/04 07:30:28;;;;;;;;;;;;;;;-145.06;100.00;60892.56;5916806;23;19945;-90
2023/01/04 07:33:07;;;;;;;;;;;;;;;-145.06;100.00;60892.56;5917595;23;19909;-88
2023/01/04 07:35:46;;;;;;;;;;;;;;;-145.06;100.00;60892.56;5916264;23;20131;-89
2023/01/04 07:38:25;;;;;;;;;;;;;;;-145.06;100.00;60892.56;5916943;23;19908;-90
2023/01/04 07:41:04;;;;;;;;;;;;;;;-145.06;100.00;60892.56;5917444;23;19983;-89
2023/01/04 07:43:44;;;;;;;;;;;;;;;-145.06;100.00;60892.56;5916717;23;19905;-89
2023/01/04 07:46:23;;;;;;;;;;;;;;;-145.06;100.00;60892.56;5916835;23;19909;-89
2023/01/04 07:49:03;;;;;;;;;;;;;;;-145.06;100.00;60892.56;5916924;23;19909;-88
2023/01/04 07:51:42;;;;;;;;;;;;;;;-145.06;100.00;60892.56;5917422;23;20311;-89
2023/01/04 07:54:23;;;;;;;;;;;;;;;-145.06;100.00;60892.56;5917686;23;19909;-89
2023/01/04 07:57:02;;;;;;;;;;;;;;;-145.06;100.00;60892.56;5916928;23;19905;-87
2023/01/04 07:59:41;;;;;;;;;;;;;;;-145.06;100.00;60892.56;5917664;23;19909;-89
2023/01/04 08:02:20;;;;;;;;;;;;;;;-145.06;100.00;60892.56;5934159;23;19920;-89
2023/01/04 08:04:59;;;;;;;;;;;;;;;-145.06;100.00;60892.56;5933767;23;19897;-88
2023/01/04 08:07:38;;;;;;;;;;;;;;;-145.06;100.00;60892.56;5928339;23;19940;-89
2023/01/04 08:10:17;;;;;;;;;;;;;;;-145.06;100.00;60892.56;5916598;23;19908;-90
2023/01/04 08:12:59;;;;;;;;;;;;;;;-145.06;100.00;60892.56;5926130;23;19909;-89
2023/01/04 08:15:38;;;;;;;;;;;;;;;-145.06;100.00;60892.56;5915562;23;20155;-89
2023/01/04 08:18:17;;;;;;;;;;;;;;;-145.06;100.00;60892.56;5915856;23;19940;-90
2023/01/04 08:21:03;;;;;;;;;;;;;;;-145.06;100.00;60892.56;5916713;23;20261;-89
2023/01/04 08:23:43;;;;;;;;;;;;;;;-145.06;100.00;60892.56;5915593;23;19905;-91
2023/01/04 08:26:22;;;;;;;;;;;;;;;-145.06;100.00;60892.56;5915825;23;20205;-89
2023/01/04 08:29:01;;;;;;;;;;;;;;;-145.06;100.00;60892.56;5917039;23;19905;-90
2023/01/04 08:31:40;;;;;;;;;;;;;;;-145.06;100.00;60892.56;5918069;23;19905;-91
2023/01/04 08:34:18;;;;;;;;;;;;;;;-145.06;100.00;60892.56;5919346;23;19979;-91
2023/01/04 08:36:57;;;;;;;;;;;;;;;-145.06;100.00;60892.56;5917027;23;19971;-89
2023/01/04 08:39:36;;;;;;;;;;;;;;;-145.06;100.00;60892.56;5917546;23;19909;-89
2023/01/04 08:42:16;;;;;;;;;;;;;;;-145.06;100.00;60892.56;5917255;23;19972;-90
2023/01/04 08:44:57;;;;;;;;;;;;;;;-145.06;100.00;60892.56;5917976;23;19905;-89
2023/01/04 08:47:35;;;;;;;;;;;;;;;-145.06;100.00;60892.56;5927268;23;19940;-88
2023/01/04 08:50:15;;;;;;;;;;;;;;;-145.06;100.00;60892.56;5897466;23;20399;-91
2023/01/04 08:52:54;;;;;;;;;;;;;;;-145.06;100.00;60892.56;5898265;23;19904;-90
2023/01/04 08:55:33;;;;;;;;;;;;;;;-145.06;100.00;60892.56;5898368;23;20265;-89
2023/01/04 08:58:12;;;;;;;;;;;;;;;-145.06;100.00;60892.56;5897305;23;19908;-89
2023/01/04 09:00:51;;;;;;;;;;;;;;;-145.06;100.00;60892.56;5897968;23;20221;-90
2023/01/04 09:03:30;;;;;;;;;;;;;;;-145.06;100.00;60892.56;5897202;23;19905;-90
2023/01/04 09:06:11;;;;;;;;;;;;;;;-145.06;100.00;60892.56;5897934;23;19913;-90
2023/01/04 09:08:51;;;;;;;;;;;;;;;-145.06;100.00;60892.56;5899066;23;19905;-90
2023/01/04 09:11:30;;;;;;;;;;;;;;;-145.06;100.00;60892.56;5896569;23;19905;-90
2023/01/04 09:14:09;;;;;;;;;;;;;;;-145.06;100.00;60892.56;5897604;23;19932;-90
2023/01/04 09:16:48;;;;;;;;;;;;;;;-145.06;100.00;60892.56;5896358;23;19909;-89
2023/01/04 09:19:27;;;;;;;;;;;;;;;-145.06;100.00;60892.56;5896470;23;19905;-90
2023/01/04 09:22:06;;;;;;;;;;;;;;;-145.06;100.00;60892.56;5898327;23;19905;-91
2023/01/04 09:24:45;;;;;;;;;;;;;;;-145.06;100.00;60892.56;5896848;23;19905;-90
2023/01/04 09:27:24;;;;;;;;;;;;;;;-145.06;100.00;60892.56;5896802;23;19913;-89
2023/01/04 09:30:03;;;;;;;;;;;;;;;-145.06;100.00;60892.56;5897898;23;19924;-90
2023/01/04 09:32:42;;;;;;;;;;;;;;;-145.06;100.00;60892.56;5896523;23;19908;-90
2023/01/04 09:35:21;;;;;;;;;;;;;;;-145.06;100.00;60892.56;5917424;23;19905;-89
2023/01/04 09:38:00;;;;;;;;;;;;;;;-145.06;100.00;60892.56;5896685;23;19908;-89
2023/01/04 09:40:53;;;;;;;;;;;;;;;-145.06;100.00;60892.56;5897574;23;19933;-89
2023/01/04 09:43:39;;;;;;;;;;;;;;;-145.06;100.00;60892.56;5896998;23;19905;-90
2023/01/04 09:46:28;;;;;;;;;;;;;;;-145.06;100.00;60892.56;5897104;23;19948;-90
2023/01/04 09:49:10;;;;;;;;;;;;;;;-145.06;100.00;60892.56;5917100;23;19913;-91
2023/01/04 09:52:01;;;;;;;;;;;;;;;-145.06;100.00;60892.56;5917019;23;19909;-89
2023/01/04 09:54:40;;;;;;;;;;;;;;;-145.06;100.00;60892.56;5917594;23;19909;-89
2023/01/04 09:57:27;;;;;;;;;;;;;;;-145.06;100.00;60892.56;5916784;23;19904;-89
2023/01/04 10:00:18;;;;;;;;;;;;;;;-145.06;100.00;60892.56;5917618;23;19948;-91
2023/01/04 10:03:02;;;;;;;;;;;;;;;-145.06;100.00;60892.56;5918382;23;19905;-90
2023/01/04 10:05:41;;;;;;;;;;;;;;;-145.06;100.00;60892.56;5917599;23;19905;-90
2023/01/04 10:08:20;;;;;;;;;;;;;;;-145.06;100.00;60892.56;5916282;23;19980;-90
2023/01/04 10:10:59;;;;;;;;;;;;;;;-145.06;100.00;60892.56;5916973;23;20466;-89
2023/01/04 10:13:45;;;;;;;;;;;;;;;-145.06;100.00;60892.56;5918193;23;19936;-90
2023/01/04 10:16:43;;;;;;;;;;;;;;;-145.06;100.00;60892.56;5919307;23;20269;-91
2023/01/04 10:19:30;;;;;;;;;;;;;;;-145.06;100.00;60892.56;5917973;23;19901;-89
2023/01/04 10:22:17;;;;;;;;;;;;;;;-145.06;100.00;60892.56;5917701;23;20149;-90
2023/01/04 10:25:05;;;;;;;;;;;;;;;-145.06;100.00;60892.56;5917721;23;19904;-90
2023/01/04 10:27:56;;;;;;;;;;;;;;;-145.06;100.00;60892.56;5917040;23;19909;-90
2023/01/04 10:30:38;;;;;;;;;;;;;;;-145.06;100.00;60892.56;5916816;23;19975;-91
2023/01/04 10:33:22;;;;;;;;;;;;;;;-145.06;100.00;60892.56;5918755;23;19936;-91
2023/01/04 10:36:01;;;;;;;;;;;;;;;-145.06;100.00;60892.56;5918121;23;19905;-90
2023/01/04 10:38:41;;;;;;;;;;;;;;;-145.06;100.00;60892.56;5918643;23;19908;-90
2023/01/04 10:41:23;;;;;;;;;;;;;;;-145.06;100.00;60892.56;5919042;23;19909;-90
2023/01/04 10:44:05;;;;;;;;;;;;;;;-145.06;100.00;60892.56;5918970;23;19905;-91
2023/01/04 10:47:03;;;;;;;;;;;;;;;-145.06;100.00;60892.56;5916216;23;19932;-90
2023/01/04 10:49:52;;;;;;;;;;;;;;;-145.06;100.00;60892.56;5917638;23;19913;-90
2023/01/04 10:52:37;;;;;;;;;;;;;;;-145.06;100.00;60892.56;5917612;23;19928;-90
2023/01/04 10:55:21;;;;;;;;;;;;;;;-145.06;100.00;60892.56;5918914;23;19905;-91
2023/01/04 10:58:20;;;;;;;;;;;;;;;-145.06;100.00;60892.56;5917532;23;19909;-90
2023/01/04 11:01:22;;;;;;;;;;;;;;;-145.06;100.00;60892.56;5918503;23;19908;-90
2023/01/04 11:04:05;;;;;;;;;;;;;;;-145.06;100.00;60892.56;5935785;23;19921;-90
2023/01/04 11:06:52;;;;;;;;;;;;;;;-145.06;100.00;60892.56;5931439;23;19976;-91
2023/01/04 11:09:33;;;;;;;;;;;;;;;-145.06;100.00;60892.56;5918003;23;19909;-90
2023/01/04 11:12:14;;;;;;;;;;;;;;;-145.06;100.00;60892.56;5916808;23;20324;-90
2023/01/04 11:14:53;;;;;;;;;;;;;;;-145.06;100.00;60892.56;5916612;23;19909;-90
2023/01/04 11:17:32;;;;;;;;;;;;;;;-145.06;100.00;60892.56;5915879;23;19904;-90
2023/01/04 11:20:11;;;;;;;;;;;;;;;-145.06;100.00;60892.56;5917327;23;19904;-91
2023/01/04 11:23:24;;;;;;;;;;;;;;;-145.06;100.00;60892.56;5917558;23;19905;-90
2023/01/04 11:26:24;;;;;;;;;;;;;;;-145.06;100.00;60892.56;5912893;23;19905;-89
2023/01/04 11:29:04;;;;;;;;;;;;;;;-145.06;100.00;60892.56;5916486;23;20320;-91
2023/01/04 11:31:49;;;;;;;;;;;;;;;-145.06;100.00;60892.56;5916796;23;19908;-90
2023/01/04 11:34:45;;;;;;;;;;;;;;;-145.06;100.00;60892.56;5917246;23;19912;-91
2023/01/04 11:37:24;;;;;;;;;;;;;;;-145.06;100.00;60892.56;5917577;23;19909;-89
2023/01/04 11:40:15;;;;;;;;;;;;;;;-145.06;100.00;60892.56;5916698;23;20446;-91
2023/01/04 11:43:13;;;;;;;;;;;;;;;-145.06;100.00;60892.56;5917464;23;19905;-90
2023/01/04 11:45:54;;;;;;;;;;;;;;;-145.06;100.00;60892.56;5915114;23;19979;-90
2023/01/04 11:48:35;;;;;;;;;;;;;;;-145.06;100.00;60892.56;5917543;23;19917;-91
2023/01/04 11:51:19;;;;;;;;;;;;;;;-145.06;100.00;60892.56;5917574;23;19904;-90
2023/01/04 11:54:04;;;;;;;;;;;;;;;-145.06;100.00;60892.56;5917417;23;19932;-91
2023/01/04 11:57:00;;;;;;;;;;;;;;;-145.06;100.00;60892.56;5918528;23;19945;-91
2023/01/04 11:59:39;;;;;;;;;;;;;;;-145.06;100.00;60892.56;5917327;23;19956;-92
2023/01/04 12:02:23;;;;;;;;;;;;;;;-145.06;100.00;60892.56;5917997;23;19909;-91
2023/01/04 12:05:15;;;;;;;;;;;;;;;-145.06;100.00;60892.56;5918079;23;19904;-90
2023/01/04 12:07:54;;;;;;;;;;;;;;;-145.06;100.00;60892.56;5920182;23;19913;-90
2023/01/04 12:10:33;;;;;;;;;;;;;;;-145.06;100.00;60892.56;5919480;23;19973;-91
2023/01/04 12:13:12;;;;;;;;;;;;;;;-145.06;100.00;60892.56;5918977;23;19909;-89
2023/01/04 12:16:00;;;;;;;;;;;;;;;-145.06;100.00;60892.56;5918390;23;19905;-91
2023/01/04 12:18:41;;;;;;;;;;;;;;;-145.06;100.00;60892.56;5920267;23;19908;-92
2023/01/04 12:21:24;;;;;;;;;;;;;;;-145.06;100.00;60892.56;5919452;23;19905;-90
2023/01/04 12:24:04;;;;;;;;;;;;;;;-145.06;100.00;60892.56;5918988;23;19905;-89
2023/01/04 12:26:44;;;;;;;;;;;;;;;-145.06;100.00;60892.56;5918461;23;19909;-89
2023/01/04 12:29:31;;;;;;;;;;;;;;;-145.06;100.00;60892.56;5917595;23;19908;-90
2023/01/04 12:32:11;;;;;;;;;;;;;;;-145.06;100.00;60892.56;5918679;23;19904;-91
2023/01/04 12:34:50;;;;;;;;;;;;;;;-145.06;100.00;60892.56;5917964;23;19904;-90
2023/01/04 12:37:44;;;;;;;;;;;;;;;-145.06;100.00;60892.56;5917655;23;20277;-91
2023/01/04 12:40:42;;;;;;;;;;;;;;;-145.06;100.00;60892.56;5917721;23;19905;-90
2023/01/04 12:43:23;;;;;;;;;;;;;;;-145.06;100.00;60892.56;5917885;23;19905;-90
2023/01/04 12:49:26;;;;;;;;;;;;;;;-145.06;100.00;60892.56;5928178;23;19917;-91
2023/01/04 12:52:08;;;;;;;;;;;;;;;-145.06;100.00;60892.56;5918616;23;19909;-90
2023/01/04 12:54:56;;;;;;;;;;;;;;;-145.06;100.00;60892.56;5917540;23;19952;-89
2023/01/04 12:57:38;;;;;;;;;;;;;;;-145.06;100.00;60892.56;5917469;23;20209;-90
2023/01/04 13:00:18;;;;;;;;;;;;;;;-145.06;100.00;60892.56;5917169;23;19905;-90
2023/01/04 13:03:20;;;;;;;;;;;;;;;-145.06;100.00;60892.56;5917099;23;19952;-89
2023/01/04 13:06:04;;;;;;;;;;;;;;;-145.06;100.00;60892.56;5897877;23;20188;-91
2023/01/04 13:08:44;;;;;;;;;;;;;;;-145.06;100.00;60892.56;5918135;23;19948;-90
2023/01/04 13:11:32;;;;;;;;;;;;;;;-145.06;100.00;60892.56;5918576;23;19932;-89
2023/01/04 13:14:31;;;;;;;;;;;;;;;-145.06;100.00;60892.56;5917578;23;19905;-90
2023/01/04 13:17:16;;;;;;;;;;;;;;;-145.06;100.00;60892.56;5917341;23;19924;-91
2023/01/04 13:19:55;;;;;;;;;;;;;;;-145.06;100.00;60892.56;5917835;23;19905;-91
2023/01/04 13:22:35;;;;;;;;;;;;;;;-145.06;100.00;60892.56;5917600;23;19924;-91
2023/01/04 13:25:16;;;;;;;;;;;;;;;-145.06;100.00;60892.56;5918862;23;19984;-90
2023/01/04 13:27:58;;;;;;;;;;;;;;;-145.06;100.00;60892.56;5918645;23;19913;-91
2023/01/04 13:30:38;;;;;;;;;;;;;;;-145.06;100.00;60892.56;5919179;23;19905;-90
2023/01/04 13:33:19;;;;;;;;;;;;;;;-145.06;100.00;60892.56;5920358;23;19909;-89
2023/01/04 13:36:07;;;;;;;;;;;;;;;-145.06;100.00;60892.56;5918396;23;19979;-91
2023/01/04 13:38:46;;;;;;;;;;;;;;;-145.06;100.00;60892.56;5917483;23;19905;-89
2023/01/04 13:41:25;;;;;;;;;;;;;;;-145.06;100.00;60892.56;5918310;23;19908;-90
2023/01/04 13:44:04;;;;;;;;;;;;;;;-145.06;100.00;60892.56;5918252;23;19909;-91
2023/01/04 13:46:43;;;;;;;;;;;;;;;-145.06;100.00;60892.56;5916994;23;19940;-90
2023/01/04 13:49:22;;;;;;;;;;;;;;;-145.06;100.00;60892.56;5866623;23;19909;-90
2023/01/04 13:52:20;;;;;;;;;;;;;;;-145.06;100.00;60892.56;5867749;23;19948;-90
2023/01/04 13:55:17;;;;;;;;;;;;;;;-145.06;100.00;60892.56;5867916;23;19909;-90
2023/01/04 13:57:57;;;;;;;;;;;;;;;-145.06;100.00;60892.56;5868356;23;20375;-91
2023/01/04 14:00:44;;;;;;;;;;;;;;;-145.06;100.00;60892.56;5868082;23;20023;-90
2023/01/04 14:03:23;;;;;;;;;;;;;;;-145.06;100.00;60892.56;5868428;23;20002;-90
2023/01/04 14:06:10;;;;;;;;;;;;;;;-145.06;100.00;60892.56;5866483;23;19905;-90
2023/01/04 14:08:55;;;;;;;;;;;;;;;-145.06;100.00;60892.56;5867460;23;19905;-88
2023/01/04 14:14:48;;;;;;;;;;;;;;;-145.06;100.00;60892.56;5900103;23;20294;-91
2023/01/04 14:17:45;;;;;;;;;;;;;;;-145.06;100.00;60892.56;5867124;23;19905;-90
2023/01/04 14:20:24;;;;;;;;;;;;;;;-145.06;100.00;60892.56;5867827;23;19909;-89
2023/01/04 14:23:04;;;;;;;;;;;;;;;-145.06;100.00;60892.56;5866507;23;19933;-89